sensor_id;sensor_type;location;lat;lon;timestamp;pressure;altitude;pressure_sealevel;temperature
40245;BMP280;25963;42.694;23.600;2024-01-25T00:02:22;95701.91;;;0.72
40245;BMP280;25963;42.694;23.600;2024-01-25T00:04:47;95710.84;;;0.82
40245;BMP280;25963;42.694;23.600;2024-01-25T00:07:12;95712.72;;;0.81
40245;BMP280;25963;42.694;23.600;2024-01-25T00:09:38;95694.34;;;0.81
40245;BMP280;25963;42.694;23.600;2024-01-25T00:12:03;95666.22;;;0.78
40245;BMP280;25963;42.694;23.600;2024-01-25T00:14:29;95644.75;;;0.83
40245;BMP280;25963;42.694;23.600;2024-01-25T00:16:54;95643.63;;;0.84
40245;BMP280;25963;42.694;23.600;2024-01-25T00:19:20;95641.66;;;0.92
40245;BMP280;25963;42.694;23.600;2024-01-25T00:21:45;95654.00;;;0.98
40245;BMP280;25963;42.694;23.600;2024-01-25T00:24:11;95616.84;;;0.63
40245;BMP280;25963;42.694;23.600;2024-01-25T00:26:37;95666.06;;;0.92
40245;BMP280;25963;42.694;23.600;2024-01-25T00:29:03;95669.41;;;0.96
40245;BMP280;25963;42.694;23.600;2024-01-25T00:31:28;95647.22;;;0.97
40245;BMP280;25963;42.694;23.600;2024-01-25T00:33:55;95632.31;;;0.91
40245;BMP280;25963;42.694;23.600;2024-01-25T00:36:21;95649.53;;;0.92
40245;BMP280;25963;42.694;23.600;2024-01-25T00:38:47;95623.63;;;0.60
40245;BMP280;25963;42.694;23.600;2024-01-25T00:41:17;95650.44;;;0.78
40245;BMP280;25963;42.694;23.600;2024-01-25T00:43:43;95629.34;;;0.51
40245;BMP280;25963;42.694;23.600;2024-01-25T00:46:09;95648.78;;;0.57
40245;BMP280;25963;42.694;23.600;2024-01-25T00:48:34;95649.91;;;0.56
40245;BMP280;25963;42.694;23.600;2024-01-25T00:51:00;95629.41;;;0.44
40245;BMP280;25963;42.694;23.600;2024-01-25T00:53:26;95620.50;;;0.35
40245;BMP280;25963;42.694;23.600;2024-01-25T00:55:52;95644.03;;;0.45
40245;BMP280;25963;42.694;23.600;2024-01-25T00:58:17;95620.84;;;0.37
40245;BMP280;25963;42.694;23.600;2024-01-25T01:00:43;95620.47;;;0.38
40245;BMP280;25963;42.694;23.600;2024-01-25T01:03:09;95629.06;;;0.39
40245;BMP280;25963;42.694;23.600;2024-01-25T01:05:36;95616.81;;;0.29
40245;BMP280;25963;42.694;23.600;2024-01-25T01:08:01;95626.13;;;0.33
40245;BMP280;25963;42.694;23.600;2024-01-25T01:10:27;95636.31;;;0.31
40245;BMP280;25963;42.694;23.600;2024-01-25T01:12:53;95635.50;;;0.34
40245;BMP280;25963;42.694;23.600;2024-01-25T01:15:19;95593.00;;;0.09
40245;BMP280;25963;42.694;23.600;2024-01-25T01:17:45;95626.22;;;0.30
40245;BMP280;25963;42.694;23.600;2024-01-25T01:20:10;95615.63;;;0.33
40245;BMP280;25963;42.694;23.600;2024-01-25T01:22:36;95584.72;;;0.14
40245;BMP280;25963;42.694;23.600;2024-01-25T01:25:01;95583.19;;;0.17
40245;BMP280;25963;42.694;23.600;2024-01-25T01:27:27;95615.63;;;0.33
40245;BMP280;25963;42.694;23.600;2024-01-25T01:29:52;95601.00;;;0.36
40245;BMP280;25963;42.694;23.600;2024-01-25T01:32:17;95593.50;;;0.34
40245;BMP280;25963;42.694;23.600;2024-01-25T01:34:44;95583.00;;;0.34
40245;BMP280;25963;42.694;23.600;2024-01-25T01:37:09;95590.50;;;0.36
40245;BMP280;25963;42.694;23.600;2024-01-25T01:39:34;95553.38;;;0.00
40245;BMP280;25963;42.694;23.600;2024-01-25T01:42:00;95570.47;;;0.15
40245;BMP280;25963;42.694;23.600;2024-01-25T01:44:25;95554.69;;;0.19
40245;BMP280;25963;42.694;23.600;2024-01-25T01:46:51;95577.44;;;0.29
40245;BMP280;25963;42.694;23.600;2024-01-25T01:49:16;95567.34;;;0.27
40245;BMP280;25963;42.694;23.600;2024-01-25T01:51:42;95574.06;;;0.32
40245;BMP280;25963;42.694;23.600;2024-01-25T01:54:09;95562.78;;;0.31
40245;BMP280;25963;42.694;23.600;2024-01-25T01:56:35;95565.81;;;0.30
40245;BMP280;25963;42.694;23.600;2024-01-25T01:59:01;95551.59;;;0.27
40245;BMP280;25963;42.694;23.600;2024-01-25T02:01:29;95547.00;;;0.35
40245;BMP280;25963;42.694;23.600;2024-01-25T02:03:55;95554.47;;;0.36
40245;BMP280;25963;42.694;23.600;2024-01-25T02:06:22;95507.94;;;0.07
40245;BMP280;25963;42.694;23.600;2024-01-25T02:08:48;95540.13;;;0.44
40245;BMP280;25963;42.694;23.600;2024-01-25T02:11:14;95544.22;;;0.49
40245;BMP280;25963;42.694;23.600;2024-01-25T02:13:40;95549.47;;;0.49
40245;BMP280;25963;42.694;23.600;2024-01-25T02:16:07;95495.31;;;0.28
40245;BMP280;25963;42.694;23.600;2024-01-25T02:18:33;95530.56;;;0.61
40245;BMP280;25963;42.694;23.600;2024-01-25T02:20:58;95490.19;;;0.48
40245;BMP280;25963;42.694;23.600;2024-01-25T02:23:24;95517.25;;;0.75
40245;BMP280;25963;42.694;23.600;2024-01-25T02:25:49;95518.88;;;0.66
40245;BMP280;25963;42.694;23.600;2024-01-25T02:28:15;95506.28;;;0.50
40245;BMP280;25963;42.694;23.600;2024-01-25T02:30:40;95532.97;;;0.79
40245;BMP280;25963;42.694;23.600;2024-01-25T02:33:05;95524.00;;;0.76
40245;BMP280;25963;42.694;23.600;2024-01-25T02:35:31;95482.94;;;0.59
40245;BMP280;25963;42.694;23.600;2024-01-25T02:37:56;95525.00;;;0.86
40245;BMP280;25963;42.694;23.600;2024-01-25T02:40:22;95536.25;;;0.86
40245;BMP280;25963;42.694;23.600;2024-01-25T02:42:47;95536.97;;;0.90
40245;BMP280;25963;42.694;23.600;2024-01-25T02:45:13;95521.19;;;0.90
40245;BMP280;25963;42.694;23.600;2024-01-25T02:47:38;95523.78;;;0.94
40245;BMP280;25963;42.694;23.600;2024-01-25T02:50:04;95522.97;;;0.97
40245;BMP280;25963;42.694;23.600;2024-01-25T02:52:29;95519.69;;;0.89
40245;BMP280;25963;42.694;23.600;2024-01-25T02:54:55;95516.38;;;0.85
40245;BMP280;25963;42.694;23.600;2024-01-25T02:57:20;95531.97;;;0.99
40245;BMP280;25963;42.694;23.600;2024-01-25T02:59:45;95467.88;;;0.63
40245;BMP280;25963;42.694;23.600;2024-01-25T03:02:12;95516.91;;;1.00
40245;BMP280;25963;42.694;23.600;2024-01-25T03:04:37;95517.28;;;1.02
40245;BMP280;25963;42.694;23.600;2024-01-25T03:07:03;95477.00;;;0.82
40245;BMP280;25963;42.694;23.600;2024-01-25T03:09:28;95494.91;;;0.90
40245;BMP280;25963;42.694;23.600;2024-01-25T03:11:54;95537.13;;;1.06
40245;BMP280;25963;42.694;23.600;2024-01-25T03:14:19;95505.91;;;0.82
40245;BMP280;25963;42.694;23.600;2024-01-25T03:16:45;95544.06;;;0.93
40245;BMP280;25963;42.694;23.600;2024-01-25T03:19:11;95486.31;;;0.59
40245;BMP280;25963;42.694;23.600;2024-01-25T03:21:36;95531.69;;;0.90
40245;BMP280;25963;42.694;23.600;2024-01-25T03:24:02;95543.38;;;0.86
40245;BMP280;25963;42.694;23.600;2024-01-25T03:26:27;95534.38;;;0.87
40245;BMP280;25963;42.694;23.600;2024-01-25T03:28:53;95523.22;;;0.79
40245;BMP280;25963;42.694;23.600;2024-01-25T03:31:19;95515.66;;;0.81
40245;BMP280;25963;42.694;23.600;2024-01-25T03:33:44;95527.69;;;0.82
40245;BMP280;25963;42.694;23.600;2024-01-25T03:36:13;95484.50;;;0.53
40245;BMP280;25963;42.694;23.600;2024-01-25T03:38:39;95525.69;;;0.90
40245;BMP280;25963;42.694;23.600;2024-01-25T03:41:04;95506.97;;;0.88
40245;BMP280;25963;42.694;23.600;2024-01-25T03:43:29;95516.28;;;0.92
40245;BMP280;25963;42.694;23.600;2024-01-25T03:45:55;95501.41;;;0.82
40245;BMP280;25963;42.694;23.600;2024-01-25T03:48:20;95506.56;;;0.89
40245;BMP280;25963;42.694;23.600;2024-01-25T03:50:47;95506.47;;;0.96
40245;BMP280;25963;42.694;23.600;2024-01-25T03:53:12;95491.81;;;0.99
40245;BMP280;25963;42.694;23.600;2024-01-25T03:55:38;95448.00;;;0.62
40245;BMP280;25963;42.694;23.600;2024-01-25T03:58:04;95480.38;;;0.82
40245;BMP280;25963;42.694;23.600;2024-01-25T04:00:29;95486.88;;;0.74
40245;BMP280;25963;42.694;23.600;2024-01-25T04:02:55;95496.41;;;0.61
40245;BMP280;25963;42.694;23.600;2024-01-25T04:05:20;95506.13;;;0.64
40245;BMP280;25963;42.694;23.600;2024-01-25T04:07:46;95509.13;;;0.66
40245;BMP280;25963;42.694;23.600;2024-01-25T04:10:11;95505.34;;;0.67
40245;BMP280;25963;42.694;23.600;2024-01-25T04:12:37;95501.25;;;0.66
40245;BMP280;25963;42.694;23.600;2024-01-25T04:15:02;95489.94;;;0.69
40245;BMP280;25963;42.694;23.600;2024-01-25T04:17:28;95491.44;;;0.70
40245;BMP280;25963;42.694;23.600;2024-01-25T04:19:53;95494.09;;;0.67
40245;BMP280;25963;42.694;23.600;2024-01-25T04:22:19;95484.72;;;0.66
40245;BMP280;25963;42.694;23.600;2024-01-25T04:24:44;95477.59;;;0.66
40245;BMP280;25963;42.694;23.600;2024-01-25T04:27:13;95492.47;;;0.76
40245;BMP280;25963;42.694;23.600;2024-01-25T04:29:39;95474.88;;;0.73
40245;BMP280;25963;42.694;23.600;2024-01-25T04:32:06;95479.22;;;0.83
40245;BMP280;25963;42.694;23.600;2024-01-25T04:34:32;95459.38;;;0.82
40245;BMP280;25963;42.694;23.600;2024-01-25T04:36:57;95456.28;;;0.87
40245;BMP280;25963;42.694;23.600;2024-01-25T04:39:23;95464.63;;;0.82
40245;BMP280;25963;42.694;23.600;2024-01-25T04:41:48;95466.88;;;0.80
40245;BMP280;25963;42.694;23.600;2024-01-25T04:44:14;95447.28;;;0.58
40245;BMP280;25963;42.694;23.600;2024-01-25T04:46:39;95452.91;;;0.60
40245;BMP280;25963;42.694;23.600;2024-01-25T04:49:05;95475.91;;;0.79
40245;BMP280;25963;42.694;23.600;2024-01-25T04:51:30;95488.63;;;0.84
40245;BMP280;25963;42.694;23.600;2024-01-25T04:53:56;95493.88;;;0.84
40245;BMP280;25963;42.694;23.600;2024-01-25T04:56:21;95467.63;;;0.81
40245;BMP280;25963;42.694;23.600;2024-01-25T04:58:46;95496.75;;;0.93
40245;BMP280;25963;42.694;23.600;2024-01-25T05:01:12;95502.00;;;0.93
40245;BMP280;25963;42.694;23.600;2024-01-25T05:03:37;95505.69;;;0.99
40245;BMP280;25963;42.694;23.600;2024-01-25T05:06:03;95451.34;;;0.66
40245;BMP280;25963;42.694;23.600;2024-01-25T05:08:28;95504.97;;;0.95
40245;BMP280;25963;42.694;23.600;2024-01-25T05:10:54;95457.16;;;0.50
40245;BMP280;25963;42.694;23.600;2024-01-25T05:13:19;95514.09;;;0.87
40245;BMP280;25963;42.694;23.600;2024-01-25T05:15:45;95501.09;;;0.77
40245;BMP280;25963;42.694;23.600;2024-01-25T05:18:10;95529.88;;;0.87
40245;BMP280;25963;42.694;23.600;2024-01-25T05:20:35;95494.16;;;0.63
40245;BMP280;25963;42.694;23.600;2024-01-25T05:23:03;95515.66;;;0.81
40245;BMP280;25963;42.694;23.600;2024-01-25T05:25:29;95494.50;;;0.65
40245;BMP280;25963;42.694;23.600;2024-01-25T05:27:58;95552.53;;;1.04
40245;BMP280;25963;42.694;23.600;2024-01-25T05:30:27;95570.94;;;1.04
40245;BMP280;25963;42.694;23.600;2024-01-25T05:32:52;95564.50;;;1.09
40245;BMP280;25963;42.694;23.600;2024-01-25T05:35:19;95552.47;;;1.08
40245;BMP280;25963;42.694;23.600;2024-01-25T05:37:45;95555.72;;;1.19
40245;BMP280;25963;42.694;23.600;2024-01-25T05:40:11;95556.38;;;1.27
40245;BMP280;25963;42.694;23.600;2024-01-25T05:42:36;95558.38;;;1.42
40245;BMP280;25963;42.694;23.600;2024-01-25T05:45:02;95550.44;;;1.46
40245;BMP280;25963;42.694;23.600;2024-01-25T05:47:29;95568.41;;;1.74
40245;BMP280;25963;42.694;23.600;2024-01-25T05:49:55;95490.44;;;1.37
40245;BMP280;25963;42.694;23.600;2024-01-25T05:52:21;95514.41;;;1.66
40245;BMP280;25963;42.694;23.600;2024-01-25T05:54:47;95565.94;;;2.10
40245;BMP280;25963;42.694;23.600;2024-01-25T05:57:12;95568.16;;;2.11
40245;BMP280;25963;42.694;23.600;2024-01-25T05:59:38;95527.06;;;1.94
40245;BMP280;25963;42.694;23.600;2024-01-25T06:02:03;95566.56;;;2.17
40245;BMP280;25963;42.694;23.600;2024-01-25T06:04:29;95553.50;;;2.10
40245;BMP280;25963;42.694;23.600;2024-01-25T06:06:54;95557.84;;;2.20
40245;BMP280;25963;42.694;23.600;2024-01-25T06:09:20;95564.94;;;2.23
40245;BMP280;25963;42.694;23.600;2024-01-25T06:11:45;95565.13;;;2.32
40245;BMP280;25963;42.694;23.600;2024-01-25T06:14:11;95564.72;;;2.34
40245;BMP280;25963;42.694;23.600;2024-01-25T06:16:37;95550.97;;;2.26
40245;BMP280;25963;42.694;23.600;2024-01-25T06:19:03;95577.41;;;2.39
40245;BMP280;25963;42.694;23.600;2024-01-25T06:21:29;95540.94;;;2.37
40245;BMP280;25963;42.694;23.600;2024-01-25T06:23:54;95540.88;;;2.41
40245;BMP280;25963;42.694;23.600;2024-01-25T06:26:19;95563.72;;;2.47
40245;BMP280;25963;42.694;23.600;2024-01-25T06:28:45;95548.66;;;2.48
40245;BMP280;25963;42.694;23.600;2024-01-25T06:31:10;95493.69;;;2.11
40245;BMP280;25963;42.694;23.600;2024-01-25T06:33:36;95534.94;;;2.37
40245;BMP280;25963;42.694;23.600;2024-01-25T06:36:01;95546.56;;;2.39
40245;BMP280;25963;42.694;23.600;2024-01-25T06:38:27;95593.72;;;2.73
40245;BMP280;25963;42.694;23.600;2024-01-25T06:40:52;95590.94;;;2.80
40245;BMP280;25963;42.694;23.600;2024-01-25T06:43:18;95551.84;;;2.59
40245;BMP280;25963;42.694;23.600;2024-01-25T06:45:43;95607.53;;;2.97
40245;BMP280;25963;42.694;23.600;2024-01-25T06:48:09;95600.84;;;2.92
40245;BMP280;25963;42.694;23.600;2024-01-25T06:50:34;95589.47;;;2.95
40245;BMP280;25963;42.694;23.600;2024-01-25T06:53:00;95593.66;;;2.93
40245;BMP280;25963;42.694;23.600;2024-01-25T06:55:25;95563.16;;;2.76
40245;BMP280;25963;42.694;23.600;2024-01-25T06:57:51;95575.38;;;2.86
40245;BMP280;25963;42.694;23.600;2024-01-25T07:00:17;95559.44;;;2.73
40245;BMP280;25963;42.694;23.600;2024-01-25T07:02:43;95587.41;;;2.87
40245;BMP280;25963;42.694;23.600;2024-01-25T07:05:09;95583.56;;;2.91
40245;BMP280;25963;42.694;23.600;2024-01-25T07:07:35;95599.13;;;3.02
40245;BMP280;25963;42.694;23.600;2024-01-25T07:10:06;95578.53;;;2.97
40245;BMP280;25963;42.694;23.600;2024-01-25T07:12:32;95585.13;;;3.05
40245;BMP280;25963;42.694;23.600;2024-01-25T07:14:58;95597.03;;;3.13
40245;BMP280;25963;42.694;23.600;2024-01-25T07:17:23;95600.69;;;3.19
40245;BMP280;25963;42.694;23.600;2024-01-25T07:19:49;95598.66;;;3.23
40245;BMP280;25963;42.694;23.600;2024-01-25T07:22:14;95596.97;;;3.33
40245;BMP280;25963;42.694;23.600;2024-01-25T07:24:40;95595.72;;;3.37
40245;BMP280;25963;42.694;23.600;2024-01-25T07:27:07;95572.91;;;3.31
40245;BMP280;25963;42.694;23.600;2024-01-25T07:29:32;95570.50;;;3.36
40245;BMP280;25963;42.694;23.600;2024-01-25T07:31:57;95591.81;;;3.61
40245;BMP280;25963;42.694;23.600;2024-01-25T07:34:23;95592.66;;;3.71
40245;BMP280;25963;42.694;23.600;2024-01-25T07:36:48;95603.81;;;3.78
40245;BMP280;25963;42.694;23.600;2024-01-25T07:39:13;95610.91;;;3.82
40245;BMP280;25963;42.694;23.600;2024-01-25T07:41:39;95614.47;;;3.91
40245;BMP280;25963;42.694;23.600;2024-01-25T07:44:04;95611.97;;;4.00
40245;BMP280;25963;42.694;23.600;2024-01-25T07:46:31;95613.94;;;4.12
40245;BMP280;25963;42.694;23.600;2024-01-25T07:48:56;95614.38;;;4.23
40245;BMP280;25963;42.694;23.600;2024-01-25T07:51:22;95619.53;;;4.30
40245;BMP280;25963;42.694;23.600;2024-01-25T07:53:47;95586.66;;;4.15
40245;BMP280;25963;42.694;23.600;2024-01-25T07:56:13;95622.63;;;4.54
40245;BMP280;25963;42.694;23.600;2024-01-25T07:58:39;95601.47;;;4.41
40245;BMP280;25963;42.694;23.600;2024-01-25T08:01:04;95626.38;;;4.69
40245;BMP280;25963;42.694;23.600;2024-01-25T08:03:31;95633.06;;;4.74
40245;BMP280;25963;42.694;23.600;2024-01-25T08:05:57;95641.22;;;4.79
40245;BMP280;25963;42.694;23.600;2024-01-25T08:08:23;95606.41;;;4.68
40245;BMP280;25963;42.694;23.600;2024-01-25T08:10:48;95611.94;;;4.86
40245;BMP280;25963;42.694;23.600;2024-01-25T08:13:14;95571.59;;;4.70
40245;BMP280;25963;42.694;23.600;2024-01-25T08:15:39;95619.47;;;5.13
40245;BMP280;25963;42.694;23.600;2024-01-25T08:18:05;95625.31;;;5.21
40245;BMP280;25963;42.694;23.600;2024-01-25T08:20:31;95621.66;;;5.27
40245;BMP280;25963;42.694;23.600;2024-01-25T08:22:56;95596.59;;;5.19
40245;BMP280;25963;42.694;23.600;2024-01-25T08:25:22;95627.72;;;5.53
40245;BMP280;25963;42.694;23.600;2024-01-25T08:27:47;95627.81;;;5.62
40245;BMP280;25963;42.694;23.600;2024-01-25T08:30:13;95605.06;;;5.52
40245;BMP280;25963;42.694;23.600;2024-01-25T08:32:38;95614.47;;;5.65
40245;BMP280;25963;42.694;23.600;2024-01-25T08:35:04;95598.69;;;5.62
40245;BMP280;25963;42.694;23.600;2024-01-25T08:37:29;95607.03;;;5.73
40245;BMP280;25963;42.694;23.600;2024-01-25T08:39:55;95583.19;;;5.60
40245;BMP280;25963;42.694;23.600;2024-01-25T08:42:20;95582.78;;;5.62
40245;BMP280;25963;42.694;23.600;2024-01-25T08:44:46;95568.41;;;5.63
40245;BMP280;25963;42.694;23.600;2024-01-25T08:47:18;95625.19;;;5.96
40245;BMP280;25963;42.694;23.600;2024-01-25T08:49:43;95581.94;;;5.65
40245;BMP280;25963;42.694;23.600;2024-01-25T08:52:09;95572.19;;;5.62
40245;BMP280;25963;42.694;23.600;2024-01-25T08:54:35;95622.88;;;5.98
40245;BMP280;25963;42.694;23.600;2024-01-25T08:57:03;95623.06;;;6.04
40245;BMP280;25963;42.694;23.600;2024-01-25T08:59:28;95566.06;;;5.65
40245;BMP280;25963;42.694;23.600;2024-01-25T09:01:56;95633.91;;;6.18
40245;BMP280;25963;42.694;23.600;2024-01-25T09:04:21;95638.03;;;6.19
40245;BMP280;25963;42.694;23.600;2024-01-25T09:06:47;95621.34;;;6.10
40245;BMP280;25963;42.694;23.600;2024-01-25T09:09:12;95637.56;;;6.33
40245;BMP280;25963;42.694;23.600;2024-01-25T09:11:37;95628.00;;;6.36
40245;BMP280;25963;42.694;23.600;2024-01-25T09:14:03;95636.06;;;6.32
40245;BMP280;25963;42.694;23.600;2024-01-25T09:16:28;95640.59;;;6.44
40245;BMP280;25963;42.694;23.600;2024-01-25T09:18:54;95637.38;;;6.49
40245;BMP280;25963;42.694;23.600;2024-01-25T09:21:19;95633.38;;;6.67
40245;BMP280;25963;42.694;23.600;2024-01-25T09:23:45;95635.50;;;6.81
40245;BMP280;25963;42.694;23.600;2024-01-25T09:26:10;95630.63;;;7.10
40245;BMP280;25963;42.694;23.600;2024-01-25T09:28:35;95624.53;;;7.31
40245;BMP280;25963;42.694;23.600;2024-01-25T09:31:01;95623.97;;;7.36
40245;BMP280;25963;42.694;23.600;2024-01-25T09:33:26;95615.09;;;7.39
40245;BMP280;25963;42.694;23.600;2024-01-25T09:35:52;95587.66;;;7.33
40245;BMP280;25963;42.694;23.600;2024-01-25T09:38:17;95592.34;;;7.29
40245;BMP280;25963;42.694;23.600;2024-01-25T09:40:43;95593.69;;;7.24
40245;BMP280;25963;42.694;23.600;2024-01-25T09:43:08;95580.22;;;7.10
40245;BMP280;25963;42.694;23.600;2024-01-25T09:45:34;95580.34;;;7.15
40245;BMP280;25963;42.694;23.600;2024-01-25T09:48:00;95583.47;;;7.14
40245;BMP280;25963;42.694;23.600;2024-01-25T09:50:30;95584.06;;;7.18
40245;BMP280;25963;42.694;23.600;2024-01-25T09:53:02;95576.84;;;7.28
40245;BMP280;25963;42.694;23.600;2024-01-25T09:55:29;95559.78;;;7.38
40245;BMP280;25963;42.694;23.600;2024-01-25T09:57:56;95570.91;;;7.72
40245;BMP280;25963;42.694;23.600;2024-01-25T10:00:22;95564.09;;;7.89
40245;BMP280;25963;42.694;23.600;2024-01-25T10:02:48;95545.81;;;7.91
40245;BMP280;25963;42.694;23.600;2024-01-25T10:05:17;95558.66;;;7.93
40245;BMP280;25963;42.694;23.600;2024-01-25T10:07:45;95550.38;;;7.91
40245;BMP280;25963;42.694;23.600;2024-01-25T10:10:12;95552.44;;;7.78
40245;BMP280;25963;42.694;23.600;2024-01-25T10:12:39;95514.78;;;7.52
40245;BMP280;25963;42.694;23.600;2024-01-25T10:15:05;95532.69;;;7.61
40245;BMP280;25963;42.694;23.600;2024-01-25T10:17:30;95531.94;;;7.60
40245;BMP280;25963;42.694;23.600;2024-01-25T10:19:56;95480.81;;;7.29
40245;BMP280;25963;42.694;23.600;2024-01-25T10:22:22;95515.06;;;7.45
40245;BMP280;25963;42.694;23.600;2024-01-25T10:24:48;95504.75;;;7.38
40245;BMP280;25963;42.694;23.600;2024-01-25T10:27:16;95519.97;;;7.47
40245;BMP280;25963;42.694;23.600;2024-01-25T10:29:41;95500.63;;;7.46
40245;BMP280;25963;42.694;23.600;2024-01-25T10:32:08;95500.91;;;7.48
40245;BMP280;25963;42.694;23.600;2024-01-25T10:34:35;95502.41;;;7.49
40245;BMP280;25963;42.694;23.600;2024-01-25T10:37:05;95497.66;;;7.62
40245;BMP280;25963;42.694;23.600;2024-01-25T10:39:31;95473.59;;;7.75
40245;BMP280;25963;42.694;23.600;2024-01-25T10:41:58;95506.50;;;8.14
40245;BMP280;25963;42.694;23.600;2024-01-25T10:44:24;95458.94;;;7.97
40245;BMP280;25963;42.694;23.600;2024-01-25T10:46:50;95480.88;;;8.25
40245;BMP280;25963;42.694;23.600;2024-01-25T10:49:16;95500.38;;;8.31
40245;BMP280;25963;42.694;23.600;2024-01-25T10:51:43;95490.66;;;8.19
40245;BMP280;25963;42.694;23.600;2024-01-25T10:54:10;95472.84;;;7.92
40245;BMP280;25963;42.694;23.600;2024-01-25T10:56:36;95453.72;;;7.61
40245;BMP280;25963;42.694;23.600;2024-01-25T10:59:02;95493.53;;;7.79
40245;BMP280;25963;42.694;23.600;2024-01-25T11:01:28;95450.91;;;7.47
40245;BMP280;25963;42.694;23.600;2024-01-25T11:03:54;95469.78;;;7.58
40245;BMP280;25963;42.694;23.600;2024-01-25T11:06:21;95471.84;;;7.54
40245;BMP280;25963;42.694;23.600;2024-01-25T11:08:47;95479.97;;;7.59
40245;BMP280;25963;42.694;23.600;2024-01-25T11:11:13;95476.41;;;7.62
40245;BMP280;25963;42.694;23.600;2024-01-25T11:13:42;95425.50;;;7.28
40245;BMP280;25963;42.694;23.600;2024-01-25T11:16:15;95441.59;;;7.42
40245;BMP280;25963;42.694;23.600;2024-01-25T11:18:51;95454.44;;;7.53
40245;BMP280;25963;42.694;23.600;2024-01-25T11:21:39;95443.69;;;7.47
40245;BMP280;25963;42.694;23.600;2024-01-25T11:24:05;95419.00;;;7.28
40245;BMP280;25963;42.694;23.600;2024-01-25T11:26:34;95436.88;;;7.37
40245;BMP280;25963;42.694;23.600;2024-01-25T11:28:59;95435.97;;;7.40
40245;BMP280;25963;42.694;23.600;2024-01-25T11:31:26;95418.47;;;7.34
40245;BMP280;25963;42.694;23.600;2024-01-25T11:33:57;95433.19;;;7.35
40245;BMP280;25963;42.694;23.600;2024-01-25T11:36:22;95433.78;;;7.30
40245;BMP280;25963;42.694;23.600;2024-01-25T11:38:48;95444.38;;;7.20
40245;BMP280;25963;42.694;23.600;2024-01-25T11:41:14;95430.25;;;7.14
40245;BMP280;25963;42.694;23.600;2024-01-25T11:43:40;95433.91;;;6.99
40245;BMP280;25963;42.694;23.600;2024-01-25T11:46:05;95427.13;;;6.89
40245;BMP280;25963;42.694;23.600;2024-01-25T11:48:31;95435.50;;;6.78
40245;BMP280;25963;42.694;23.600;2024-01-25T11:50:59;95449.03;;;6.80
40245;BMP280;25963;42.694;23.600;2024-01-25T11:53:24;95404.59;;;6.44
40245;BMP280;25963;42.694;23.600;2024-01-25T11:55:50;95396.50;;;6.39
40245;BMP280;25963;42.694;23.600;2024-01-25T11:58:16;95393.09;;;6.38
40245;BMP280;25963;42.694;23.600;2024-01-25T12:00:41;95443.88;;;6.68
40245;BMP280;25963;42.694;23.600;2024-01-25T12:03:08;95425.56;;;6.61
40245;BMP280;25963;42.694;23.600;2024-01-25T12:05:34;95366.09;;;6.22
40245;BMP280;25963;42.694;23.600;2024-01-25T12:07:59;95421.75;;;6.62
40245;BMP280;25963;42.694;23.600;2024-01-25T12:10:25;95383.81;;;6.43
40245;BMP280;25963;42.694;23.600;2024-01-25T12:12:51;95421.16;;;6.67
40245;BMP280;25963;42.694;23.600;2024-01-25T12:15:17;95414.38;;;6.57
40245;BMP280;25963;42.694;23.600;2024-01-25T12:17:42;95420.56;;;6.63
40245;BMP280;25963;42.694;23.600;2024-01-25T12:20:08;95381.72;;;6.29
40245;BMP280;25963;42.694;23.600;2024-01-25T12:22:36;95405.34;;;6.45
40245;BMP280;25963;42.694;23.600;2024-01-25T12:25:02;95369.63;;;6.28
40245;BMP280;25963;42.694;23.600;2024-01-25T12:27:31;95386.56;;;6.30
40245;BMP280;25963;42.694;23.600;2024-01-25T12:29:57;95360.03;;;6.21
40245;BMP280;25963;42.694;23.600;2024-01-25T12:32:23;95372.59;;;6.30
40245;BMP280;25963;42.694;23.600;2024-01-25T12:34:55;95381.34;;;6.39
40245;BMP280;25963;42.694;23.600;2024-01-25T12:37:21;95378.84;;;6.45
40245;BMP280;25963;42.694;23.600;2024-01-25T12:39:47;95366.03;;;6.53
40245;BMP280;25963;42.694;23.600;2024-01-25T12:42:13;95326.28;;;6.53
40245;BMP280;25963;42.694;23.600;2024-01-25T12:44:39;95363.75;;;7.09
40245;BMP280;25963;42.694;23.600;2024-01-25T12:47:04;95348.06;;;7.29
40245;BMP280;25963;42.694;23.600;2024-01-25T12:49:32;95291.63;;;7.19
40245;BMP280;25963;42.694;23.600;2024-01-25T12:51:57;95350.31;;;7.90
40245;BMP280;25963;42.694;23.600;2024-01-25T12:54:23;95327.66;;;8.04
40245;BMP280;25963;42.694;23.600;2024-01-25T12:56:48;95348.44;;;8.15
40245;BMP280;25963;42.694;23.600;2024-01-25T12:59:13;95275.84;;;7.67
40245;BMP280;25963;42.694;23.600;2024-01-25T13:01:39;95289.28;;;7.63
40245;BMP280;25963;42.694;23.600;2024-01-25T13:04:04;95311.34;;;7.78
40245;BMP280;25963;42.694;23.600;2024-01-25T13:06:30;95317.69;;;7.81
40245;BMP280;25963;42.694;23.600;2024-01-25T13:08:55;95301.66;;;7.66
40245;BMP280;25963;42.694;23.600;2024-01-25T13:11:21;95330.81;;;7.84
40245;BMP280;25963;42.694;23.600;2024-01-25T13:13:46;95300.38;;;7.53
40245;BMP280;25963;42.694;23.600;2024-01-25T13:16:12;95326.59;;;7.69
40245;BMP280;25963;42.694;23.600;2024-01-25T13:18:37;95294.22;;;7.47
40245;BMP280;25963;42.694;23.600;2024-01-25T13:21:03;95285.84;;;7.30
40245;BMP280;25963;42.694;23.600;2024-01-25T13:23:28;95295.28;;;7.31
40245;BMP280;25963;42.694;23.600;2024-01-25T13:25:54;95315.28;;;7.50
40245;BMP280;25963;42.694;23.600;2024-01-25T13:28:19;95317.19;;;7.59
40245;BMP280;25963;42.694;23.600;2024-01-25T13:30:45;95346.47;;;7.91
40245;BMP280;25963;42.694;23.600;2024-01-25T13:33:10;95347.63;;;7.90
40245;BMP280;25963;42.694;23.600;2024-01-25T13:35:35;95331.09;;;7.86
40245;BMP280;25963;42.694;23.600;2024-01-25T13:38:01;95318.91;;;7.80
40245;BMP280;25963;42.694;23.600;2024-01-25T13:40:27;95316.09;;;7.74
40245;BMP280;25963;42.694;23.600;2024-01-25T13:42:52;95344.34;;;7.95
40245;BMP280;25963;42.694;23.600;2024-01-25T13:45:20;95325.16;;;8.00
40245;BMP280;25963;42.694;23.600;2024-01-25T13:47:45;95312.81;;;7.88
40245;BMP280;25963;42.694;23.600;2024-01-25T13:50:11;95326.53;;;7.87
40245;BMP280;25963;42.694;23.600;2024-01-25T13:52:36;95329.94;;;7.87
40245;BMP280;25963;42.694;23.600;2024-01-25T13:55:02;95338.34;;;7.86
40245;BMP280;25963;42.694;23.600;2024-01-25T13:57:27;95338.69;;;7.70
40245;BMP280;25963;42.694;23.600;2024-01-25T13:59:53;95335.34;;;7.60
40245;BMP280;25963;42.694;23.600;2024-01-25T14:02:18;95321.53;;;7.38